sensor_id;sensor_type;location;lat;lon;timestamp;temperature;humidity
34558;DHT22;24708;48.888;8.736;2023-05-29T05:31:13;23.30;99.50
34558;DHT22;24708;48.888;8.736;2023-05-29T05:36:08;24.70;97.40
34558;DHT22;24708;48.888;8.736;2023-05-29T05:43:30;25.10;95.10
34558;DHT22;24708;48.888;8.736;2023-05-29T05:45:57;25.70;94.50
34558;DHT22;24708;48.888;8.736;2023-05-29T05:48:24;25.50;93.60
34558;DHT22;24708;48.888;8.736;2023-05-29T05:50:51;26.40;92.90
34558;DHT22;24708;48.888;8.736;2023-05-29T05:53:19;26.50;92.30
34558;DHT22;24708;48.888;8.736;2023-05-29T05:55:48;26.80;91.70
34558;DHT22;24708;48.888;8.736;2023-05-29T05:58:15;26.20;91.70
34558;DHT22;24708;48.888;8.736;2023-05-29T06:03:10;26.20;88.00
34558;DHT22;24708;48.888;8.736;2023-05-29T06:05:40;25.50;89.30
34558;DHT22;24708;48.888;8.736;2023-05-29T06:08:08;25.80;88.90
34558;DHT22;24708;48.888;8.736;2023-05-29T06:10:35;26.60;88.20
34558;DHT22;24708;48.888;8.736;2023-05-29T06:13:04;27.20;87.80
34558;DHT22;24708;48.888;8.736;2023-05-29T06:15:31;27.50;85.00
34558;DHT22;24708;48.888;8.736;2023-05-29T06:20:27;27.60;85.20
34558;DHT22;24708;48.888;8.736;2023-05-29T06:22:55;28.10;85.50
34558;DHT22;24708;48.888;8.736;2023-05-29T06:25:23;27.00;85.00
34558;DHT22;24708;48.888;8.736;2023-05-29T06:27:57;28.70;86.90
34558;DHT22;24708;48.888;8.736;2023-05-29T06:30:24;27.50;86.60
34558;DHT22;24708;48.888;8.736;2023-05-29T06:35:20;27.30;83.60
34558;DHT22;24708;48.888;8.736;2023-05-29T06:37:47;27.50;84.90
34558;DHT22;24708;48.888;8.736;2023-05-29T06:40:14;27.50;82.70
34558;DHT22;24708;48.888;8.736;2023-05-29T06:45:11;26.80;84.00
34558;DHT22;24708;48.888;8.736;2023-05-29T06:47:42;27.00;84.90
34558;DHT22;24708;48.888;8.736;2023-05-29T06:50:10;27.50;84.00
34558;DHT22;24708;48.888;8.736;2023-05-29T06:55:05;28.00;82.80
34558;DHT22;24708;48.888;8.736;2023-05-29T06:57:33;27.90;79.50
34558;DHT22;24708;48.888;8.736;2023-05-29T07:00:00;27.80;82.00
34558;DHT22;24708;48.888;8.736;2023-05-29T07:02:27;27.60;79.60
34558;DHT22;24708;48.888;8.736;2023-05-29T07:04:54;28.90;82.00
34558;DHT22;24708;48.888;8.736;2023-05-29T07:07:21;28.20;76.60
34558;DHT22;24708;48.888;8.736;2023-05-29T07:09:49;28.10;78.60
34558;DHT22;24708;48.888;8.736;2023-05-29T07:12:18;28.10;78.00
34558;DHT22;24708;48.888;8.736;2023-05-29T07:14:45;28.20;80.40
34558;DHT22;24708;48.888;8.736;2023-05-29T07:17:15;29.50;75.60
34558;DHT22;24708;48.888;8.736;2023-05-29T07:19:42;29.80;74.30
34558;DHT22;24708;48.888;8.736;2023-05-29T07:22:09;30.70;71.80
34558;DHT22;24708;48.888;8.736;2023-05-29T07:24:37;31.30;72.20
34558;DHT22;24708;48.888;8.736;2023-05-29T07:27:04;30.60;75.40
34558;DHT22;24708;48.888;8.736;2023-05-29T07:29:32;30.80;69.40
34558;DHT22;24708;48.888;8.736;2023-05-29T07:31:59;31.00;69.10
34558;DHT22;24708;48.888;8.736;2023-05-29T07:37:00;30.80;77.00
34558;DHT22;24708;48.888;8.736;2023-05-29T07:41:56;30.30;67.60
34558;DHT22;24708;48.888;8.736;2023-05-29T07:44:23;29.70;68.70
34558;DHT22;24708;48.888;8.736;2023-05-29T07:46:50;29.80;73.40
34558;DHT22;24708;48.888;8.736;2023-05-29T07:49:19;30.90;68.90
34558;DHT22;24708;48.888;8.736;2023-05-29T07:51:47;30.80;68.70
34558;DHT22;24708;48.888;8.736;2023-05-29T07:54:14;32.40;67.80
34558;DHT22;24708;48.888;8.736;2023-05-29T07:56:44;31.90;65.50
34558;DHT22;24708;48.888;8.736;2023-05-29T07:59:11;32.60;65.30
34558;DHT22;24708;48.888;8.736;2023-05-29T08:01:38;31.80;65.40
34558;DHT22;24708;48.888;8.736;2023-05-29T08:04:11;32.10;65.50
34558;DHT22;24708;48.888;8.736;2023-05-29T08:06:39;31.20;67.50
34558;DHT22;24708;48.888;8.736;2023-05-29T08:09:09;31.30;68.30
34558;DHT22;24708;48.888;8.736;2023-05-29T08:11:37;31.50;68.30
34558;DHT22;24708;48.888;8.736;2023-05-29T08:14:04;31.00;68.30
34558;DHT22;24708;48.888;8.736;2023-05-29T08:16:31;31.30;66.50
34558;DHT22;24708;48.888;8.736;2023-05-29T08:18:59;32.10;66.50
34558;DHT22;24708;48.888;8.736;2023-05-29T08:21:26;30.90;68.60
34558;DHT22;24708;48.888;8.736;2023-05-29T08:23:54;30.40;68.10
34558;DHT22;24708;48.888;8.736;2023-05-29T08:26:21;32.10;66.30
34558;DHT22;24708;48.888;8.736;2023-05-29T08:28:49;32.20;67.40
34558;DHT22;24708;48.888;8.736;2023-05-29T08:31:16;32.20;64.70
34558;DHT22;24708;48.888;8.736;2023-05-29T08:33:44;32.10;64.00
34558;DHT22;24708;48.888;8.736;2023-05-29T08:36:14;32.40;68.30
34558;DHT22;24708;48.888;8.736;2023-05-29T08:38:41;31.40;64.40
34558;DHT22;24708;48.888;8.736;2023-05-29T08:41:12;32.60;63.80
34558;DHT22;24708;48.888;8.736;2023-05-29T08:43:43;33.30;62.80
34558;DHT22;24708;48.888;8.736;2023-05-29T08:46:12;32.10;64.00
34558;DHT22;24708;48.888;8.736;2023-05-29T08:48:43;30.70;69.00
34558;DHT22;24708;48.888;8.736;2023-05-29T08:51:12;31.40;69.00
34558;DHT22;24708;48.888;8.736;2023-05-29T08:53:40;30.40;70.10
34558;DHT22;24708;48.888;8.736;2023-05-29T08:56:08;30.60;68.30
34558;DHT22;24708;48.888;8.736;2023-05-29T08:58:44;29.90;67.50
34558;DHT22;24708;48.888;8.736;2023-05-29T09:01:11;31.10;65.70
34558;DHT22;24708;48.888;8.736;2023-05-29T09:03:39;32.20;65.70
34558;DHT22;24708;48.888;8.736;2023-05-29T09:06:08;30.50;68.40
34558;DHT22;24708;48.888;8.736;2023-05-29T09:08:36;31.60;65.50
34558;DHT22;24708;48.888;8.736;2023-05-29T09:11:04;31.50;63.70
34558;DHT22;24708;48.888;8.736;2023-05-29T09:13:32;31.30;64.90
34558;DHT22;24708;48.888;8.736;2023-05-29T09:15:59;31.60;63.40
34558;DHT22;24708;48.888;8.736;2023-05-29T09:18:31;32.00;65.10
34558;DHT22;24708;48.888;8.736;2023-05-29T09:20:58;32.10;64.40
34558;DHT22;24708;48.888;8.736;2023-05-29T09:25:57;32.00;62.80
34558;DHT22;24708;48.888;8.736;2023-05-29T09:28:25;31.50;67.70
34558;DHT22;24708;48.888;8.736;2023-05-29T09:30:53;31.20;64.30
34558;DHT22;24708;48.888;8.736;2023-05-29T09:33:21;31.70;63.60
34558;DHT22;24708;48.888;8.736;2023-05-29T09:35:49;31.40;63.70
34558;DHT22;24708;48.888;8.736;2023-05-29T09:38:18;31.80;62.50
34558;DHT22;24708;48.888;8.736;2023-05-29T09:40:49;31.80;61.80
34558;DHT22;24708;48.888;8.736;2023-05-29T09:43:18;31.50;61.80
34558;DHT22;24708;48.888;8.736;2023-05-29T09:45:47;30.40;63.70
34558;DHT22;24708;48.888;8.736;2023-05-29T09:48:17;30.10;65.80
34558;DHT22;24708;48.888;8.736;2023-05-29T09:50:45;30.10;66.20
34558;DHT22;24708;48.888;8.736;2023-05-29T09:53:23;30.30;64.80
34558;DHT22;24708;48.888;8.736;2023-05-29T09:55:55;30.60;65.50
34558;DHT22;24708;48.888;8.736;2023-05-29T09:58:24;30.70;69.70
34558;DHT22;24708;48.888;8.736;2023-05-29T10:00:52;31.00;63.90
34558;DHT22;24708;48.888;8.736;2023-05-29T10:03:20;30.60;63.70
34558;DHT22;24708;48.888;8.736;2023-05-29T10:05:54;30.80;65.20
34558;DHT22;24708;48.888;8.736;2023-05-29T10:08:26;29.80;74.70
34558;DHT22;24708;48.888;8.736;2023-05-29T10:10:59;30.40;68.30
34558;DHT22;24708;48.888;8.736;2023-05-29T10:13:35;30.20;64.70
34558;DHT22;24708;48.888;8.736;2023-05-29T10:16:04;30.70;63.30
34558;DHT22;24708;48.888;8.736;2023-05-29T10:18:38;30.40;62.80
34558;DHT22;24708;48.888;8.736;2023-05-29T10:21:07;30.30;63.40
34558;DHT22;24708;48.888;8.736;2023-05-29T10:23:42;30.00;60.90
34558;DHT22;24708;48.888;8.736;2023-05-29T10:26:21;29.80;62.70
34558;DHT22;24708;48.888;8.736;2023-05-29T10:29:03;30.60;62.90
34558;DHT22;24708;48.888;8.736;2023-05-29T10:37:27;30.10;70.50
34558;DHT22;24708;48.888;8.736;2023-05-29T10:40:04;31.20;65.20
34558;DHT22;24708;48.888;8.736;2023-05-29T10:45:06;29.70;62.70
34558;DHT22;24708;48.888;8.736;2023-05-29T10:47:33;29.30;63.60
34558;DHT22;24708;48.888;8.736;2023-05-29T10:50:02;28.90;64.60
34558;DHT22;24708;48.888;8.736;2023-05-29T10:52:33;28.40;65.30
34558;DHT22;24708;48.888;8.736;2023-05-29T10:55:00;28.00;64.40
34558;DHT22;24708;48.888;8.736;2023-05-29T10:57:30;28.10;64.80
34558;DHT22;24708;48.888;8.736;2023-05-29T11:00:04;28.60;64.80
34558;DHT22;24708;48.888;8.736;2023-05-29T11:02:40;27.40;65.10
34558;DHT22;24708;48.888;8.736;2023-05-29T11:05:24;27.60;66.00
34558;DHT22;24708;48.888;8.736;2023-05-29T11:07:53;27.70;66.40
34558;DHT22;24708;48.888;8.736;2023-05-29T11:10:59;28.80;69.40
34558;DHT22;24708;48.888;8.736;2023-05-29T11:13:33;28.30;65.20
34558;DHT22;24708;48.888;8.736;2023-05-29T11:16:11;28.20;64.60
34558;DHT22;24708;48.888;8.736;2023-05-29T11:18:41;28.20;66.60
34558;DHT22;24708;48.888;8.736;2023-05-29T11:21:29;28.30;65.00
34558;DHT22;24708;48.888;8.736;2023-05-29T11:24:01;28.70;64.00
34558;DHT22;24708;48.888;8.736;2023-05-29T11:26:37;29.90;64.60
34558;DHT22;24708;48.888;8.736;2023-05-29T11:29:05;29.60;64.60
34558;DHT22;24708;48.888;8.736;2023-05-29T11:31:34;29.00;63.20
34558;DHT22;24708;48.888;8.736;2023-05-29T11:34:03;29.70;63.80
34558;DHT22;24708;48.888;8.736;2023-05-29T11:36:32;28.90;63.80
34558;DHT22;24708;48.888;8.736;2023-05-29T11:39:00;28.60;62.30
34558;DHT22;24708;48.888;8.736;2023-05-29T11:41:28;27.90;64.50
34558;DHT22;24708;48.888;8.736;2023-05-29T11:44:02;26.90;66.60
34558;DHT22;24708;48.888;8.736;2023-05-29T11:46:30;26.90;65.00
34558;DHT22;24708;48.888;8.736;2023-05-29T11:49:00;26.60;67.50
34558;DHT22;24708;48.888;8.736;2023-05-29T11:51:30;26.50;76.50
34558;DHT22;24708;48.888;8.736;2023-05-29T11:56:29;26.50;66.90
34558;DHT22;24708;48.888;8.736;2023-05-29T11:58:58;26.30;67.30
34558;DHT22;24708;48.888;8.736;2023-05-29T12:01:27;26.20;67.90
34558;DHT22;24708;48.888;8.736;2023-05-29T12:06:33;26.10;66.80
34558;DHT22;24708;48.888;8.736;2023-05-29T12:09:05;25.80;80.40
34558;DHT22;24708;48.888;8.736;2023-05-29T12:11:34;25.50;68.60
34558;DHT22;24708;48.888;8.736;2023-05-29T12:14:02;25.40;67.50
34558;DHT22;24708;48.888;8.736;2023-05-29T12:16:31;27.00;70.30
34558;DHT22;24708;48.888;8.736;2023-05-29T12:19:00;27.40;69.00
34558;DHT22;24708;48.888;8.736;2023-05-29T12:21:27;25.70;68.40
34558;DHT22;24708;48.888;8.736;2023-05-29T12:23:55;25.00;68.50
34558;DHT22;24708;48.888;8.736;2023-05-29T12:26:41;24.60;76.10
34558;DHT22;24708;48.888;8.736;2023-05-29T12:29:09;27.10;68.90
34558;DHT22;24708;48.888;8.736;2023-05-29T12:31:36;24.60;77.70
34558;DHT22;24708;48.888;8.736;2023-05-29T12:34:11;25.60;67.90
34558;DHT22;24708;48.888;8.736;2023-05-29T12:36:42;25.10;66.50
34558;DHT22;24708;48.888;8.736;2023-05-29T12:39:10;25.60;76.30
34558;DHT22;24708;48.888;8.736;2023-05-29T12:41:38;24.90;63.50
34558;DHT22;24708;48.888;8.736;2023-05-29T12:44:07;25.00;67.30
34558;DHT22;24708;48.888;8.736;2023-05-29T12:46:40;26.40;66.80
34558;DHT22;24708;48.888;8.736;2023-05-29T12:49:15;25.10;65.30
34558;DHT22;24708;48.888;8.736;2023-05-29T12:51:44;24.90;64.40
34558;DHT22;24708;48.888;8.736;2023-05-29T12:54:13;26.80;66.30
34558;DHT22;24708;48.888;8.736;2023-05-29T12:56:41;25.00;74.80
34558;DHT22;24708;48.888;8.736;2023-05-29T12:59:09;26.10;65.90
34558;DHT22;24708;48.888;8.736;2023-05-29T13:01:37;26.80;66.40
34558;DHT22;24708;48.888;8.736;2023-05-29T13:04:08;25.70;64.00
34558;DHT22;24708;48.888;8.736;2023-05-29T13:06:37;25.40;73.40
34558;DHT22;24708;48.888;8.736;2023-05-29T13:09:04;25.60;72.40
34558;DHT22;24708;48.888;8.736;2023-05-29T13:11:33;25.20;61.90
34558;DHT22;24708;48.888;8.736;2023-05-29T13:14:04;25.00;72.50
34558;DHT22;24708;48.888;8.736;2023-05-29T13:16:31;25.50;73.30
34558;DHT22;24708;48.888;8.736;2023-05-29T13:18:59;26.20;64.70
34558;DHT22;24708;48.888;8.736;2023-05-29T13:21:26;25.00;60.60
34558;DHT22;24708;48.888;8.736;2023-05-29T13:23:53;25.40;62.40
34558;DHT22;24708;48.888;8.736;2023-05-29T13:26:21;24.90;63.10
34558;DHT22;24708;48.888;8.736;2023-05-29T13:28:50;25.00;61.50
34558;DHT22;24708;48.888;8.736;2023-05-29T13:31:18;26.60;62.90
34558;DHT22;24708;48.888;8.736;2023-05-29T13:33:48;25.10;62.80
34558;DHT22;24708;48.888;8.736;2023-05-29T13:36:15;25.20;74.50
34558;DHT22;24708;48.888;8.736;2023-05-29T13:38:42;25.30;63.20
34558;DHT22;24708;48.888;8.736;2023-05-29T13:41:11;25.70;62.70
34558;DHT22;24708;48.888;8.736;2023-05-29T13:43:38;26.00;61.00
34558;DHT22;24708;48.888;8.736;2023-05-29T13:46:12;25.60;60.40
34558;DHT22;24708;48.888;8.736;2023-05-29T13:48:39;24.70;61.40
34558;DHT22;24708;48.888;8.736;2023-05-29T13:51:06;24.50;62.40
34558;DHT22;24708;48.888;8.736;2023-05-29T13:53:33;24.50;61.60
34558;DHT22;24708;48.888;8.736;2023-05-29T13:56:01;25.30;73.20
34558;DHT22;24708;48.888;8.736;2023-05-29T13:58:28;26.00;64.10
34558;DHT22;24708;48.888;8.736;2023-05-29T14:00:58;25.70;64.50
34558;DHT22;24708;48.888;8.736;2023-05-29T14:03:28;24.50;69.60
34558;DHT22;24708;48.888;8.736;2023-05-29T14:05:56;24.90;60.10
34558;DHT22;24708;48.888;8.736;2023-05-29T14:08:24;24.40;70.20
34558;DHT22;24708;48.888;8.736;2023-05-29T14:10:51;24.70;71.20
34558;DHT22;24708;48.888;8.736;2023-05-29T14:13:19;24.80;60.90
34558;DHT22;24708;48.888;8.736;2023-05-29T14:15:46;24.90;60.10
34558;DHT22;24708;48.888;8.736;2023-05-29T14:18:13;25.00;60.10
34558;DHT22;24708;48.888;8.736;2023-05-29T14:20:40;26.50;63.70
34558;DHT22;24708;48.888;8.736;2023-05-29T14:23:08;24.70;62.50
34558;DHT22;24708;48.888;8.736;2023-05-29T14:25:41;24.70;62.00
34558;DHT22;24708;48.888;8.736;2023-05-29T14:28:08;24.60;60.20
34558;DHT22;24708;48.888;8.736;2023-05-29T14:30:37;24.50;67.90
34558;DHT22;24708;48.888;8.736;2023-05-29T14:33:04;24.30;70.60
34558;DHT22;24708;48.888;8.736;2023-05-29T14:35:31;24.50;60.60
34558;DHT22;24708;48.888;8.736;2023-05-29T14:37:59;24.60;60.30
34558;DHT22;24708;48.888;8.736;2023-05-29T14:40:26;23.70;60.90
34558;DHT22;24708;48.888;8.736;2023-05-29T14:42:54;24.70;61.70
34558;DHT22;24708;48.888;8.736;2023-05-29T14:47:48;24.30;72.00
34558;DHT22;24708;48.888;8.736;2023-05-29T14:50:16;24.60;62.30
34558;DHT22;24708;48.888;8.736;2023-05-29T14:52:43;24.90;62.10
34558;DHT22;24708;48.888;8.736;2023-05-29T14:55:10;24.50;70.30
34558;DHT22;24708;48.888;8.736;2023-05-29T14:57:38;27.00;62.30
34558;DHT22;24708;48.888;8.736;2023-05-29T15:00:06;25.90;62.40
34558;DHT22;24708;48.888;8.736;2023-05-29T15:02:34;24.80;70.20
34558;DHT22;24708;48.888;8.736;2023-05-29T15:05:01;27.30;62.90
34558;DHT22;24708;48.888;8.736;2023-05-29T15:07:32;24.60;71.10
34558;DHT22;24708;48.888;8.736;2023-05-29T15:10:01;24.50;61.20
34558;DHT22;24708;48.888;8.736;2023-05-29T15:12:29;24.40;61.60
34558;DHT22;24708;48.888;8.736;2023-05-29T15:14:56;24.80;62.70
34558;DHT22;24708;48.888;8.736;2023-05-29T15:17:23;24.60;61.00
34558;DHT22;24708;48.888;8.736;2023-05-29T15:19:51;24.40;61.00
34558;DHT22;24708;48.888;8.736;2023-05-29T15:22:18;24.50;63.20
34558;DHT22;24708;48.888;8.736;2023-05-29T15:24:46;24.60;71.80
34558;DHT22;24708;48.888;8.736;2023-05-29T15:27:13;25.00;62.00
34558;DHT22;24708;48.888;8.736;2023-05-29T15:29:41;25.70;62.80
34558;DHT22;24708;48.888;8.736;2023-05-29T15:32:09;25.30;61.90
34558;DHT22;24708;48.888;8.736;2023-05-29T15:34:36;24.50;62.00
34558;DHT22;24708;48.888;8.736;2023-05-29T15:37:04;24.50;60.70
34558;DHT22;24708;48.888;8.736;2023-05-29T15:39:31;24.40;61.80
34558;DHT22;24708;48.888;8.736;2023-05-29T15:41:58;24.10;71.00
34558;DHT22;24708;48.888;8.736;2023-05-29T15:44:27;25.00;61.80
34558;DHT22;24708;48.888;8.736;2023-05-29T15:46:54;26.20;63.20
34558;DHT22;24708;48.888;8.736;2023-05-29T15:49:21;26.70;64.80
34558;DHT22;24708;48.888;8.736;2023-05-29T15:51:48;26.70;64.60
34558;DHT22;24708;48.888;8.736;2023-05-29T15:54:16;24.20;72.10
34558;DHT22;24708;48.888;8.736;2023-05-29T15:56:44;24.70;72.70
34558;DHT22;24708;48.888;8.736;2023-05-29T15:59:12;24.20;62.50
